createdAt,value
2018-04-30T00:02:15.429Z,5.90
2018-04-30T00:04:43.003Z,5.97
2018-04-30T00:07:10.558Z,5.70
2018-04-30T00:09:38.113Z,5.20
2018-04-30T00:12:05.698Z,4.50
2018-04-30T00:14:33.226Z,5.20
2018-04-30T00:17:00.800Z,5.30
2018-04-30T00:19:28.348Z,4.80
2018-04-30T00:21:55.919Z,5.50
2018-04-30T00:24:23.464Z,4.63
2018-04-30T00:26:51.023Z,4.23
2018-04-30T00:29:18.564Z,4.80
2018-04-30T00:31:46.899Z,4.40
2018-04-30T00:34:14.439Z,5.00
2018-04-30T00:36:42.006Z,4.50
2018-04-30T00:39:09.555Z,4.50
2018-04-30T00:41:37.132Z,4.80
2018-04-30T00:44:04.672Z,4.67
2018-04-30T00:46:32.236Z,4.43
2018-04-30T00:48:59.791Z,4.90
2018-04-30T00:51:27.361Z,4.47
2018-04-30T00:53:54.906Z,4.00
2018-04-30T00:56:22.480Z,4.03
2018-04-30T00:58:50.031Z,3.63
2018-04-30T01:01:17.591Z,3.83
2018-04-30T01:03:45.134Z,3.43
2018-04-30T01:06:12.695Z,3.80
2018-04-30T01:08:40.245Z,3.10
2018-04-30T01:11:07.812Z,2.70
2018-04-30T01:13:35.372Z,2.67
2018-04-30T01:16:02.947Z,2.93
2018-04-30T01:18:30.484Z,2.30
2018-04-30T01:20:58.028Z,1.97
2018-04-30T01:23:26.359Z,2.30
2018-04-30T01:25:53.900Z,2.13
2018-04-30T01:28:21.468Z,2.17
2018-04-30T01:30:49.023Z,2.17
2018-04-30T01:33:16.590Z,2.00
2018-04-30T01:35:44.121Z,1.87
2018-04-30T01:38:11.676Z,1.93
2018-04-30T01:40:39.219Z,1.60
2018-04-30T01:43:07.535Z,1.57
2018-04-30T01:45:35.063Z,0.93
2018-04-30T01:48:03.403Z,0.90
2018-04-30T01:50:30.947Z,1.00
2018-04-30T01:52:58.517Z,1.10
2018-04-30T01:55:26.055Z,1.00
2018-04-30T01:57:53.617Z,1.10
2018-04-30T02:00:21.171Z,0.87
2018-04-30T02:02:49.756Z,1.00
2018-04-30T02:05:17.318Z,0.90
2018-04-30T02:07:44.887Z,1.10
2018-04-30T02:10:12.431Z,1.00
2018-04-30T02:12:40.019Z,0.90
2018-04-30T02:15:07.549Z,0.50
2018-04-30T02:17:35.112Z,0.90
2018-04-30T02:20:02.651Z,1.03
2018-04-30T02:22:30.229Z,0.70
2018-04-30T02:24:57.784Z,0.80
2018-04-30T02:27:25.343Z,0.60
2018-04-30T02:29:52.884Z,0.60
2018-04-30T02:32:20.466Z,1.00
2018-04-30T02:34:48.015Z,0.70
2018-04-30T02:37:15.586Z,0.70
2018-04-30T02:39:43.132Z,0.80
2018-04-30T02:42:10.692Z,0.70
2018-04-30T02:44:38.245Z,0.60
2018-04-30T02:47:05.777Z,0.70
2018-04-30T02:49:34.103Z,0.83
2018-04-30T02:52:01.654Z,0.60
2018-04-30T02:54:29.221Z,0.73
2018-04-30T02:56:56.751Z,0.70
2018-04-30T02:59:24.326Z,0.70
2018-04-30T03:01:51.879Z,0.70
2018-04-30T03:04:19.444Z,0.60
2018-04-30T03:06:46.989Z,1.10
2018-04-30T03:09:15.319Z,0.53
2018-04-30T03:11:42.872Z,0.70
2018-04-30T03:14:10.441Z,0.80
2018-04-30T03:16:37.997Z,0.60
2018-04-30T03:19:05.634Z,0.73
2018-04-30T03:21:33.180Z,0.60
2018-04-30T03:24:00.742Z,0.60
2018-04-30T03:26:28.282Z,0.60
2018-04-30T03:28:56.602Z,0.50
2018-04-30T03:31:24.157Z,0.90
2018-04-30T03:33:51.724Z,0.60
2018-04-30T03:36:19.272Z,0.80
2018-04-30T03:38:46.826Z,1.10
2018-04-30T03:41:14.387Z,0.67
2018-04-30T03:43:41.946Z,0.70
2018-04-30T03:46:09.579Z,0.80
2018-04-30T03:48:37.245Z,0.90
2018-04-30T03:51:04.905Z,0.60
2018-04-30T03:53:32.605Z,0.67
2018-04-30T03:56:00.158Z,0.87
2018-04-30T03:58:27.720Z,0.80
2018-04-30T04:01:07.215Z,0.80
2018-04-30T04:03:47.350Z,0.83
2018-04-30T04:09:23.487Z,1.00
2018-04-30T04:11:51.030Z,0.70
2018-04-30T04:14:18.603Z,0.77
2018-04-30T04:16:46.135Z,0.87
2018-04-30T04:19:14.466Z,1.03
2018-04-30T04:21:42.007Z,0.60
2018-04-30T04:24:09.578Z,0.70
2018-04-30T04:26:37.127Z,0.90
2018-04-30T04:29:04.695Z,1.30
2018-04-30T04:31:32.239Z,0.80
2018-04-30T04:33:59.799Z,0.77
2018-04-30T04:36:27.344Z,0.80
2018-04-30T04:38:54.903Z,0.63
2018-04-30T04:41:22.478Z,0.90
2018-04-30T04:43:50.019Z,0.83
2018-04-30T04:46:17.666Z,0.80
2018-04-30T04:48:45.247Z,1.00
2018-04-30T04:51:12.818Z,0.90
2018-04-30T04:53:40.363Z,0.73
2018-04-30T04:56:07.935Z,0.70
2018-04-30T04:58:35.479Z,0.90
2018-04-30T05:01:03.057Z,0.80
2018-04-30T05:03:30.599Z,0.80
2018-04-30T05:05:58.174Z,0.87
2018-04-30T05:08:25.701Z,1.30
2018-04-30T05:10:54.099Z,0.87
2018-04-30T05:13:21.591Z,0.97
2018-04-30T05:15:49.160Z,0.63
2018-04-30T05:18:16.705Z,1.00
2018-04-30T05:20:44.266Z,1.07
2018-04-30T05:23:11.804Z,1.20
2018-04-30T05:25:39.371Z,0.80
2018-04-30T05:28:06.921Z,0.70
2018-04-30T05:30:34.487Z,1.07
2018-04-30T05:33:02.026Z,0.83
2018-04-30T05:35:29.594Z,1.17
2018-04-30T05:37:57.138Z,0.83
2018-04-30T05:40:25.470Z,0.83
2018-04-30T05:42:53.790Z,1.07
2018-04-30T05:45:22.119Z,0.80
2018-04-30T05:47:49.653Z,1.17
2018-04-30T05:50:17.221Z,0.60
2018-04-30T05:52:44.767Z,1.20
2018-04-30T05:55:12.377Z,2.47
2018-04-30T05:57:39.891Z,0.73
2018-04-30T06:00:07.462Z,0.87
2018-04-30T06:02:35.001Z,0.67
2018-04-30T06:05:02.538Z,1.20
2018-04-30T06:07:30.874Z,0.97
2018-04-30T06:09:58.419Z,0.93
2018-04-30T06:12:25.983Z,0.90
2018-04-30T06:14:53.519Z,1.37
2018-04-30T06:17:21.085Z,1.10
2018-04-30T06:19:48.612Z,1.13
2018-04-30T06:22:16.939Z,0.80
2018-04-30T06:24:44.470Z,0.80
2018-04-30T06:27:12.058Z,0.80
2018-04-30T06:29:39.600Z,1.43
2018-04-30T06:32:07.168Z,0.80
2018-04-30T06:34:34.702Z,0.60
2018-04-30T06:37:02.267Z,0.70
2018-04-30T06:39:29.812Z,0.73
2018-04-30T06:41:58.160Z,0.60
2018-04-30T06:44:25.693Z,0.93
2018-04-30T06:46:53.268Z,0.60
2018-04-30T06:49:20.806Z,0.40
2018-04-30T06:51:48.368Z,0.90
2018-04-30T06:54:15.906Z,0.60
2018-04-30T06:56:43.486Z,0.50
2018-04-30T06:59:11.029Z,0.83
2018-04-30T07:01:38.594Z,0.47
2018-04-30T07:04:06.121Z,0.60
2018-04-30T07:06:34.451Z,0.60
2018-04-30T07:09:02.041Z,0.70
2018-04-30T07:11:29.585Z,0.60
2018-04-30T07:13:57.130Z,0.77
2018-04-30T07:16:24.689Z,0.60
2018-04-30T07:18:52.213Z,0.70
2018-04-30T07:21:19.780Z,0.80
2018-04-30T07:23:47.319Z,0.70
2018-04-30T07:26:15.624Z,0.80
2018-04-30T07:28:43.194Z,0.87
2018-04-30T07:31:10.735Z,1.07
2018-04-30T07:33:38.301Z,1.03
2018-04-30T07:36:05.850Z,1.00
2018-04-30T07:38:33.407Z,0.60
2018-04-30T07:41:00.937Z,1.10
2018-04-30T07:43:29.262Z,0.80
2018-04-30T07:45:56.793Z,0.73
2018-04-30T07:48:24.363Z,0.43
2018-04-30T07:50:51.920Z,0.57
2018-04-30T07:53:19.487Z,0.60
2018-04-30T07:55:47.021Z,0.83
2018-04-30T07:58:15.353Z,0.53
2018-04-30T08:00:42.900Z,0.87
2018-04-30T08:03:10.534Z,0.43
2018-04-30T08:05:38.043Z,0.40
2018-04-30T08:08:05.607Z,0.50
2018-04-30T08:10:33.155Z,0.50
2018-04-30T08:13:00.715Z,0.73
2018-04-30T08:15:28.271Z,0.60
2018-04-30T08:17:55.843Z,0.63
2018-04-30T08:20:23.400Z,0.60
2018-04-30T08:22:50.975Z,0.60
2018-04-30T08:25:19.292Z,0.57
2018-04-30T08:27:46.853Z,0.60
2018-04-30T08:30:14.396Z,0.60
2018-04-30T08:32:41.972Z,0.67
2018-04-30T08:35:09.522Z,0.60
2018-04-30T08:37:37.100Z,0.60
2018-04-30T08:40:04.630Z,0.50
2018-04-30T08:42:32.966Z,0.60
2018-04-30T08:45:00.517Z,0.80
2018-04-30T08:47:28.077Z,0.50
2018-04-30T08:49:55.648Z,0.80
2018-04-30T08:52:23.194Z,0.60
2018-04-30T08:54:50.768Z,0.50
2018-04-30T08:57:18.311Z,0.60
2018-04-30T08:59:45.879Z,0.60
2018-04-30T09:02:13.426Z,0.60
2018-04-30T09:04:40.995Z,0.60
2018-04-30T09:07:08.549Z,0.47
2018-04-30T09:09:36.122Z,0.50
2018-04-30T09:12:03.687Z,0.70
2018-04-30T09:14:31.254Z,0.60
2018-04-30T09:16:58.798Z,0.60
2018-04-30T09:19:26.367Z,0.60
2018-04-30T09:21:53.926Z,0.50
2018-04-30T09:24:21.491Z,0.90
2018-04-30T09:26:49.029Z,0.50
2018-04-30T09:29:16.596Z,0.70
2018-04-30T09:31:44.144Z,0.77
2018-04-30T09:34:11.713Z,0.53
2018-04-30T09:36:39.256Z,0.60
2018-04-30T09:39:06.810Z,0.60
2018-04-30T09:41:34.346Z,0.70
2018-04-30T09:44:01.927Z,0.63
2018-04-30T09:46:29.471Z,0.50
2018-04-30T09:48:57.035Z,0.80
2018-04-30T09:51:24.569Z,0.93
2018-04-30T09:53:52.897Z,0.70
2018-04-30T09:56:20.450Z,0.60
2018-04-30T09:58:48.017Z,0.60
2018-04-30T10:01:15.562Z,0.80
2018-04-30T10:03:43.092Z,0.60
2018-04-30T10:06:11.424Z,0.80
2018-04-30T10:08:38.958Z,0.50
2018-04-30T10:11:06.519Z,0.70
2018-04-30T10:13:34.061Z,0.60
2018-04-30T10:16:01.633Z,0.60
2018-04-30T10:18:29.188Z,0.50
2018-04-30T10:20:56.754Z,1.00
2018-04-30T10:23:24.353Z,0.87
2018-04-30T10:25:51.886Z,0.50
2018-04-30T10:28:19.433Z,0.50
2018-04-30T10:30:47.006Z,0.70
2018-04-30T10:33:14.570Z,0.90
2018-04-30T10:35:42.128Z,0.53
2018-04-30T10:38:10.443Z,0.70
2018-04-30T10:40:38.779Z,0.63
2018-04-30T10:43:06.327Z,0.67
2018-04-30T10:45:33.894Z,0.50
2018-04-30T10:48:01.429Z,0.70
2018-04-30T10:50:29.003Z,0.60
2018-04-30T10:52:56.569Z,0.73
2018-04-30T10:55:24.141Z,0.70
2018-04-30T10:57:51.684Z,0.50
2018-04-30T11:00:19.260Z,0.50
2018-04-30T11:02:46.803Z,0.77
2018-04-30T11:05:14.372Z,0.73
2018-04-30T11:07:41.924Z,0.80
2018-04-30T11:10:09.492Z,0.70
2018-04-30T11:12:37.043Z,0.57
2018-04-30T11:15:04.619Z,0.70
2018-04-30T11:17:32.160Z,0.57
2018-04-30T11:20:00.350Z,0.80
2018-04-30T11:22:27.919Z,0.67
2018-04-30T11:24:55.465Z,0.60
2018-04-30T11:27:23.031Z,0.80
2018-04-30T11:29:50.580Z,1.20
2018-04-30T11:32:18.148Z,3.87
2018-04-30T11:34:45.698Z,0.90
2018-04-30T11:37:13.283Z,1.27
2018-04-30T11:39:41.618Z,0.70
2018-04-30T11:42:09.210Z,0.60
2018-04-30T11:44:36.762Z,0.70
2018-04-30T11:47:04.429Z,0.87
2018-04-30T11:49:32.675Z,0.60
2018-04-30T11:52:00.260Z,0.57
2018-04-30T11:54:27.811Z,0.60
2018-04-30T11:56:55.386Z,0.50
2018-04-30T11:59:22.935Z,0.60
2018-04-30T12:01:50.518Z,0.80
2018-04-30T12:04:18.857Z,0.67
2018-04-30T12:06:46.429Z,0.60
2018-04-30T12:09:13.971Z,0.60
2018-04-30T12:11:41.567Z,0.90
2018-04-30T12:14:09.126Z,0.80
2018-04-30T12:16:36.729Z,0.60
2018-04-30T12:19:04.302Z,0.90
2018-04-30T12:21:31.882Z,1.07
2018-04-30T12:23:59.446Z,0.83
2018-04-30T12:26:27.032Z,1.00
2018-04-30T12:28:54.589Z,0.60
2018-04-30T12:31:22.175Z,0.60
2018-04-30T12:33:49.751Z,0.70
2018-04-30T12:36:17.306Z,0.50
2018-04-30T12:38:44.887Z,0.60
2018-04-30T12:41:12.447Z,0.63
2018-04-30T12:43:40.072Z,0.90
2018-04-30T12:46:07.585Z,0.60
2018-04-30T12:48:35.922Z,0.70
2018-04-30T12:51:03.479Z,1.00
2018-04-30T12:53:31.822Z,0.60
2018-04-30T12:55:59.448Z,0.93
2018-04-30T12:58:27.727Z,0.70
2018-04-30T13:00:55.291Z,0.87
2018-04-30T13:03:22.886Z,0.80
2018-04-30T13:05:51.212Z,0.77
2018-04-30T13:08:18.791Z,0.80
2018-04-30T13:10:46.361Z,0.50
2018-04-30T13:13:13.938Z,0.70
2018-04-30T13:15:41.504Z,0.70
2018-04-30T13:18:09.856Z,0.80
2018-04-30T13:20:37.407Z,0.60
2018-04-30T13:23:04.979Z,0.83
2018-04-30T13:25:32.538Z,0.50
2018-04-30T13:28:00.111Z,0.70
2018-04-30T13:30:27.660Z,0.70
2018-04-30T13:32:55.225Z,0.90
2018-04-30T13:35:22.773Z,0.70
2018-04-30T13:37:50.427Z,0.60
2018-04-30T13:40:18.052Z,0.73
2018-04-30T13:42:45.704Z,0.50
2018-04-30T13:45:13.360Z,0.50
2018-04-30T13:47:41.776Z,0.70
2018-04-30T13:50:09.400Z,0.57
2018-04-30T13:52:37.027Z,0.47
2018-04-30T13:55:04.596Z,0.80
2018-04-30T13:57:32.161Z,1.00
2018-04-30T13:59:59.711Z,0.70
2018-04-30T14:02:27.257Z,0.80
2018-04-30T14:04:54.839Z,0.60
2018-04-30T14:07:22.377Z,0.60
2018-04-30T14:09:49.954Z,0.60
2018-04-30T14:12:17.512Z,0.57
2018-04-30T14:14:45.073Z,0.67
2018-04-30T14:17:12.620Z,0.70
2018-04-30T14:19:40.184Z,0.70
2018-04-30T14:22:07.727Z,0.63
2018-04-30T14:24:35.290Z,0.57
2018-04-30T14:27:02.825Z,0.60
2018-04-30T14:29:30.392Z,0.60
2018-04-30T14:31:57.935Z,0.60
2018-04-30T14:34:25.494Z,0.70
2018-04-30T14:36:53.043Z,1.00
2018-04-30T14:39:21.377Z,0.67
2018-04-30T14:41:48.921Z,1.03
2018-04-30T14:44:16.495Z,0.97
2018-04-30T14:46:44.050Z,0.90
2018-04-30T14:49:11.619Z,0.87
2018-04-30T14:51:39.155Z,0.80
2018-04-30T14:54:06.711Z,1.00
2018-04-30T14:56:34.261Z,0.50
2018-04-30T14:59:01.824Z,0.70
2018-04-30T15:01:29.375Z,0.63
2018-04-30T15:03:56.968Z,0.50
2018-04-30T15:06:24.514Z,0.80
2018-04-30T15:08:52.090Z,0.80
2018-04-30T15:11:19.635Z,0.90
2018-04-30T15:13:47.211Z,1.07
2018-04-30T15:16:14.760Z,1.57
2018-04-30T15:18:42.354Z,0.70
2018-04-30T15:21:09.885Z,0.70
2018-04-30T15:23:37.419Z,1.30
2018-04-30T15:26:04.969Z,1.03
2018-04-30T15:28:32.504Z,1.03
2018-04-30T15:31:00.843Z,0.80
2018-04-30T15:33:28.388Z,0.70
2018-04-30T15:35:56.022Z,2.40
2018-04-30T15:38:23.558Z,1.10
2018-04-30T15:40:51.892Z,1.00
2018-04-30T15:43:19.436Z,1.07
2018-04-30T15:45:47.009Z,0.73
2018-04-30T15:48:14.560Z,0.60
2018-04-30T15:50:42.130Z,0.80
2018-04-30T15:53:09.682Z,0.83
2018-04-30T15:55:37.261Z,1.10
2018-04-30T15:58:04.800Z,0.80
2018-04-30T16:00:32.377Z,1.20
2018-04-30T16:02:59.921Z,0.70
2018-04-30T16:05:27.497Z,1.00
2018-04-30T16:07:55.039Z,0.80
2018-04-30T16:10:22.615Z,0.70
2018-04-30T16:12:50.159Z,0.73
2018-04-30T16:15:17.724Z,0.90
2018-04-30T16:17:45.274Z,0.80
2018-04-30T16:20:12.876Z,0.70
2018-04-30T16:22:40.419Z,0.77
2018-04-30T16:25:07.986Z,0.80
2018-04-30T16:27:36.493Z,0.63
2018-04-30T16:30:04.814Z,0.93
2018-04-30T16:32:32.346Z,1.00
2018-04-30T16:35:00.675Z,1.00
2018-04-30T16:37:28.306Z,1.10
2018-04-30T16:39:55.907Z,1.17
2018-04-30T16:42:23.555Z,1.17
2018-04-30T16:44:51.180Z,1.23
2018-04-30T16:47:18.787Z,1.40
2018-04-30T16:49:46.323Z,1.20
2018-04-30T16:52:13.882Z,1.10
2018-04-30T16:54:41.428Z,1.50
2018-04-30T16:57:10.016Z,1.50
2018-04-30T16:59:37.562Z,1.23
2018-04-30T17:02:05.135Z,1.03
2018-04-30T17:04:32.684Z,1.00
2018-04-30T17:07:00.245Z,0.90
2018-04-30T17:09:27.792Z,0.80
2018-04-30T17:11:55.370Z,0.97
2018-04-30T17:14:22.906Z,1.70
2018-04-30T17:16:51.232Z,1.27
2018-04-30T17:19:18.775Z,1.03
2018-04-30T17:21:46.340Z,1.20
2018-04-30T17:24:13.935Z,1.03
2018-04-30T17:26:41.486Z,1.00
2018-04-30T17:29:09.047Z,0.90
2018-04-30T17:31:36.628Z,1.20
2018-04-30T17:34:04.940Z,0.80
2018-04-30T17:36:32.720Z,1.30
2018-04-30T17:39:00.288Z,0.97
2018-04-30T17:41:28.639Z,0.97
2018-04-30T17:43:56.180Z,0.70
2018-04-30T17:46:23.771Z,0.90
2018-04-30T17:48:51.301Z,1.00
2018-04-30T17:51:19.645Z,0.90
2018-04-30T17:53:47.187Z,0.70
2018-04-30T17:56:14.773Z,1.00
2018-04-30T17:58:43.177Z,1.20
2018-04-30T18:01:10.668Z,1.00
2018-04-30T18:03:38.210Z,0.90
2018-04-30T18:06:05.751Z,1.03
2018-04-30T18:08:33.341Z,1.20
2018-04-30T18:11:00.869Z,1.10
2018-04-30T18:13:29.197Z,1.33
2018-04-30T18:15:56.760Z,1.10
2018-04-30T18:18:24.322Z,1.30
2018-04-30T18:20:51.858Z,1.67
2018-04-30T18:23:19.417Z,1.10
2018-04-30T18:25:46.956Z,1.00
2018-04-30T18:28:14.536Z,1.93
2018-04-30T18:30:42.076Z,0.90
2018-04-30T18:33:09.641Z,0.90
2018-04-30T18:35:37.182Z,1.17
2018-04-30T18:38:04.751Z,1.27
2018-04-30T18:40:32.310Z,1.20
2018-04-30T18:42:59.896Z,0.93
2018-04-30T18:45:27.458Z,0.93
2018-04-30T18:47:55.029Z,0.93
2018-04-30T18:50:22.576Z,1.27
2018-04-30T18:52:50.155Z,1.17
2018-04-30T18:55:17.696Z,1.23
2018-04-30T18:57:45.266Z,1.10
2018-04-30T19:00:12.812Z,1.10
2018-04-30T19:02:40.423Z,4.80
2018-04-30T19:05:08.725Z,0.80
2018-04-30T19:07:36.284Z,1.30
2018-04-30T19:10:03.822Z,1.20
2018-04-30T19:12:32.155Z,0.90
2018-04-30T19:14:59.696Z,0.70
2018-04-30T19:17:27.260Z,1.07
2018-04-30T19:19:54.807Z,0.90
2018-04-30T19:22:22.383Z,1.33
2018-04-30T19:24:49.922Z,1.10
2018-04-30T19:27:17.480Z,0.80
2018-04-30T19:29:45.055Z,1.00
2018-04-30T19:32:12.591Z,1.40
2018-04-30T19:34:40.149Z,1.17
2018-04-30T19:37:07.738Z,1.17
2018-04-30T19:39:36.059Z,0.97
2018-04-30T19:42:03.584Z,1.10
2018-04-30T19:44:31.152Z,1.20
2018-04-30T19:46:58.702Z,1.37
2018-04-30T19:49:26.279Z,1.00
2018-04-30T19:51:53.820Z,0.83
2018-04-30T19:54:21.392Z,0.87
2018-04-30T19:56:48.926Z,1.27
2018-04-30T19:59:16.486Z,0.90
2018-04-30T20:01:44.034Z,1.23
2018-04-30T20:04:11.603Z,1.10
2018-04-30T20:06:39.139Z,1.60
2018-04-30T20:09:07.468Z,1.00
2018-04-30T20:11:34.999Z,1.30
2018-04-30T20:14:02.584Z,1.23
2018-04-30T20:16:30.124Z,1.40
2018-04-30T20:18:57.676Z,1.20
2018-04-30T20:21:25.223Z,1.00
2018-04-30T20:23:52.781Z,1.17
2018-04-30T20:26:20.319Z,1.87
2018-04-30T20:28:48.649Z,1.50
2018-04-30T20:31:16.195Z,1.33
2018-04-30T20:33:43.760Z,1.37
2018-04-30T20:36:11.310Z,1.10
2018-04-30T20:38:38.877Z,0.83
2018-04-30T20:41:06.419Z,0.90
2018-04-30T20:43:33.973Z,3.63
2018-04-30T20:46:01.536Z,1.77
2018-04-30T20:48:29.096Z,2.50
2018-04-30T20:50:56.675Z,2.30
2018-04-30T20:53:24.214Z,1.40
2018-04-30T20:55:51.786Z,1.30
2018-04-30T20:58:19.353Z,1.23
2018-04-30T21:00:46.905Z,0.80
2018-04-30T21:03:14.465Z,1.07
2018-04-30T21:05:42.108Z,1.13
2018-04-30T21:08:09.732Z,1.10
2018-04-30T21:10:38.120Z,0.93
2018-04-30T21:13:06.447Z,1.00
2018-04-30T21:15:34.017Z,1.20
2018-04-30T21:18:01.574Z,1.00
2018-04-30T21:20:29.147Z,0.80
2018-04-30T21:22:56.689Z,0.97
2018-04-30T21:25:24.316Z,1.00
2018-04-30T21:27:51.827Z,0.80
2018-04-30T21:30:19.377Z,1.00
2018-04-30T21:32:46.930Z,1.00
2018-04-30T21:35:14.495Z,0.70
2018-04-30T21:37:42.048Z,0.83
2018-04-30T21:40:09.645Z,0.90
2018-04-30T21:42:37.191Z,1.00
2018-04-30T21:45:04.751Z,0.73
2018-04-30T21:47:32.348Z,0.70
2018-04-30T21:49:59.875Z,0.63
2018-04-30T21:52:27.430Z,0.70
2018-04-30T21:54:54.990Z,0.90
2018-04-30T21:57:22.527Z,0.70
2018-04-30T21:59:50.075Z,0.70
2018-04-30T22:02:17.638Z,0.60
2018-04-30T22:04:45.225Z,0.60
2018-04-30T22:07:12.791Z,0.60
2018-04-30T22:09:40.333Z,0.50
2018-04-30T22:12:07.921Z,0.70
2018-04-30T22:14:35.471Z,0.80
2018-04-30T22:17:03.039Z,0.90
2018-04-30T22:19:30.585Z,1.00
2018-04-30T22:21:58.148Z,0.90
2018-04-30T22:24:25.701Z,1.00
2018-04-30T22:26:53.273Z,1.27
2018-04-30T22:29:20.822Z,1.10
2018-04-30T22:31:48.383Z,1.10
2018-04-30T22:34:15.925Z,1.40
2018-04-30T22:36:43.550Z,0.90
2018-04-30T22:39:11.059Z,0.97
2018-04-30T22:41:38.629Z,0.90
2018-04-30T22:44:06.179Z,1.23
2018-04-30T22:46:33.745Z,0.90
2018-04-30T22:49:01.295Z,0.90
2018-04-30T22:51:28.871Z,1.07
2018-04-30T22:53:56.412Z,1.27
2018-04-30T22:56:23.975Z,0.80
2018-04-30T22:58:51.517Z,0.80
2018-04-30T23:01:19.083Z,1.10
2018-04-30T23:03:46.627Z,0.93
2018-04-30T23:06:14.203Z,1.00
2018-04-30T23:08:41.746Z,0.90
2018-04-30T23:11:09.304Z,1.00
2018-04-30T23:13:36.840Z,1.00
2018-04-30T23:16:04.394Z,1.07
2018-04-30T23:18:32.700Z,1.00
2018-04-30T23:21:00.280Z,0.80
2018-04-30T23:23:27.824Z,0.90
2018-04-30T23:25:55.451Z,0.80
2018-04-30T23:28:23.069Z,1.13
2018-04-30T23:30:50.713Z,0.80
2018-04-30T23:33:18.341Z,0.97
2018-04-30T23:35:45.965Z,0.97
2018-04-30T23:38:14.392Z,0.90
2018-04-30T23:40:42.026Z,1.00
2018-04-30T23:43:10.435Z,0.77
2018-04-30T23:45:38.002Z,1.10
2018-04-30T23:48:05.572Z,1.10
2018-04-30T23:50:33.120Z,1.27
2018-04-30T23:53:00.687Z,0.70
2018-04-30T23:55:28.265Z,1.10
2018-04-30T23:57:55.830Z,1.10
